Time;durP1;ratioP1;P1;durP2;ratioP2;P2;SDS_P1;SDS_P2;PMS_P1;PMS_P2;Temp;Humidity;BMP_temperature;BMP_pressure;BME280_temperature;BME280_humidity;BME280_pressure;Samples;Min_cycle;Max_cycle;Signal;HPM_P1;HPM_P2
2023/07/09 00:03:29;;;;;;;18.20;10.60;;;;;;;19.62;50.17;100848.96;107578;1298;548661;-79
2023/07/09 00:06:13;;;;;;;15.00;10.30;;;;;;;19.53;50.58;100851.16;109357;1273;22001;-77
2023/07/09 00:12:03;;;;;;;15.70;10.50;;;;;;;19.34;51.11;100852.80;110346;1266;21983;-79
2023/07/09 00:15:02;;;;;;;15.70;10.40;;;;;;;19.28;51.25;100851.45;109692;1271;21982;-81
2023/07/09 00:18:15;;;;;;;15.10;9.50;;;;;;;19.14;51.42;100852.73;106689;1258;22423;-79
2023/07/09 00:21:01;;;;;;;21.10;11.50;;;;;;;19.04;51.74;100852.83;110005;1269;21970;-80
2023/07/09 00:23:53;;;;;;;21.90;11.90;;;;;;;19.00;51.90;100852.42;109091;1274;21992;-81
2023/07/09 00:26:58;;;;;;;16.20;11.10;;;;;;;18.93;52.17;100852.30;109077;1278;23065;-80
2023/07/09 00:30:05;;;;;;;15.40;10.40;;;;;;;18.88;52.13;100850.55;108731;1278;21982;-79
2023/07/09 00:33:14;;;;;;;19.50;11.50;;;;;;;18.82;52.27;100854.60;108988;1279;22014;-78
2023/07/09 00:36:29;;;;;;;15.00;11.30;;;;;;;18.75;52.45;100854.14;109047;1276;23051;-79
2023/07/09 00:39:32;;;;;;;17.80;12.20;;;;;;;18.69;52.74;100855.03;109588;1270;21975;-80
2023/07/09 00:42:33;;;;;;;15.90;11.30;;;;;;;18.64;52.90;100850.62;110726;1261;23618;-80
2023/07/09 00:46:20;;;;;;;18.10;11.50;;;;;;;18.56;53.05;100850.95;111068;1255;22258;-80
2023/07/09 00:49:29;;;;;;;12.40;11.00;;;;;;;18.50;53.14;100851.70;111368;1255;21914;-79
2023/07/09 00:52:45;;;;;;;13.30;10.90;;;;;;;18.46;53.16;100848.96;110612;1259;21993;-79
2023/07/09 00:56:08;;;;;;;15.40;10.90;;;;;;;18.41;53.51;100847.86;110095;1268;23762;-80
2023/07/09 00:59:16;;;;;;;;;;;;;;;;;;;;;
2023/07/09 01:02:23;;;;;;;16.30;11.30;;;;;;;18.37;53.86;100848.08;109384;1272;22069;-78
2023/07/09 01:05:55;;;;;;;17.60;11.80;;;;;;;18.30;53.87;100851.66;109008;1277;24899;-79
2023/07/09 01:08:46;;;;;;;20.60;11.80;;;;;;;18.25;53.86;100852.70;109264;1277;22007;-79
2023/07/09 01:12:05;;;;;;;16.60;11.80;;;;;;;18.22;53.84;100850.80;109665;1268;22056;-80
2023/07/09 01:15:15;;;;;;;17.10;10.50;;;;;;;18.12;54.17;100848.39;110087;1262;23695;-81
2023/07/09 01:18:40;;;;;;;17.00;12.20;;;;;;;18.02;54.47;100837.55;109366;1276;22280;-79
2023/07/09 01:21:30;;;;;;;18.40;13.40;;;;;;;18.06;54.66;100841.58;109162;1276;23077;-80
2023/07/09 01:25:11;;;;;;;14.20;11.50;;;;;;;18.02;54.55;100840.22;109260;1276;22454;-82
2023/07/09 01:28:31;;;;;;;16.00;12.00;;;;;;;17.90;54.67;100840.39;108772;1281;21988;-81
2023/07/09 01:32:25;;;;;;;17.00;11.80;;;;;;;17.82;54.81;100847.41;109032;1275;21987;-82
2023/07/09 01:35:39;;;;;;;18.30;11.90;;;;;;;17.73;54.93;100854.08;109481;1270;21977;-81
2023/07/09 01:38:35;;;;;;;14.20;11.20;;;;;;;17.70;55.16;100863.93;109396;1274;21981;-80
2023/07/09 01:41:41;;;;;;;;;;;;;;;;;;;;;
2023/07/09 01:45:04;;;;;;;15.60;12.10;;;;;;;17.67;55.36;100869.75;108856;1280;22955;-81
2023/07/09 01:48:40;;;;;;;15.70;11.90;;;;;;;17.64;55.56;100870.27;108956;1279;22020;-81
2023/07/09 01:51:22;;;;;;;14.00;12.40;;;;;;;17.64;55.46;100870.09;108886;1278;21991;-81
2023/07/09 01:54:40;;;;;;;18.80;11.90;;;;;;;17.60;55.66;100864.31;108961;1278;22015;-80
2023/07/09 01:57:43;;;;;;;18.10;13.80;;;;;;;17.58;55.83;100861.13;108779;1282;23732;-79
2023/07/09 02:01:00;;;;;;;16.30;14.60;;;;;;;17.57;55.66;100867.53;109129;1279;23725;-82
2023/07/09 02:04:07;;;;;;;15.80;14.10;;;;;;;17.52;55.67;100872.89;109730;1271;23090;-80
2023/07/09 02:07:05;;;;;;;17.00;14.00;;;;;;;17.50;55.76;100871.65;110051;1268;21975;-79
2023/07/09 02:09:54;;;;;;;14.50;12.30;;;;;;;17.50;56.01;100870.73;110268;1265;21998;-81
2023/07/09 02:13:00;;;;;;;14.50;11.30;;;;;;;17.52;56.17;100874.82;110575;1266;22985;-80
2023/07/09 02:16:03;;;;;;;16.10;12.70;;;;;;;17.55;56.19;100878.89;110046;1265;22168;-80
2023/07/09 02:19:16;;;;;;;19.10;13.10;;;;;;;17.52;56.14;100877.27;110302;1266;23819;-80
2023/07/09 02:22:02;;;;;;;19.00;13.80;;;;;;;17.48;56.16;100871.20;110426;1261;23120;-81
2023/07/09 02:25:52;;;;;;;15.20;13.00;;;;;;;17.41;56.27;100869.85;110649;1261;22020;-80
2023/07/09 02:29:19;;;;;;;13.40;11.70;;;;;;;17.34;56.33;100870.25;110142;1268;23753;-81
2023/07/09 02:32:15;;;;;;;16.90;12.50;;;;;;;17.29;56.46;100869.50;110054;1268;21957;-80
2023/07/09 02:36:08;;;;;;;15.70;12.00;;;;;;;17.24;56.61;100872.24;110588;1263;21982;-80
2023/07/09 02:39:07;;;;;;;13.10;11.60;;;;;;;17.19;56.81;100876.57;110804;1263;21976;-82
2023/07/09 02:42:23;;;;;;;14.20;12.00;;;;;;;17.16;57.07;100878.88;110178;1269;21974;-80
2023/07/09 02:49:02;;;;;;;14.60;11.90;;;;;;;17.09;57.56;100874.69;109613;1274;21979;-80
2023/07/09 02:52:22;;;;;;;16.60;11.40;;;;;;;17.07;57.79;100873.71;109556;1274;23748;-81
2023/07/09 02:55:24;;;;;;;12.20;10.10;;;;;;;17.11;57.76;100877.05;109425;1274;21738;-82
2023/07/09 02:58:11;;;;;;;13.60;10.20;;;;;;;17.14;57.62;100878.60;109320;1274;22057;-80
2023/07/09 03:01:05;;;;;;;15.20;11.20;;;;;;;17.18;57.53;100878.22;109474;1273;21995;-82
2023/07/09 03:04:02;;;;;;;15.30;10.60;;;;;;;17.18;57.43;100881.23;108948;1277;21981;-79
2023/07/09 03:06:44;;;;;;;16.00;12.40;;;;;;;17.16;57.63;100879.38;109118;1275;22041;-82
2023/07/09 03:09:40;;;;;;;12.50;9.70;;;;;;;17.14;57.80;100875.63;109126;1271;22022;-80
2023/07/09 03:12:32;;;;;;;15.00;11.10;;;;;;;17.12;57.75;100875.89;108800;1279;22151;-80
2023/07/09 03:15:33;;;;;;;13.90;11.10;;;;;;;17.11;57.88;100881.22;108881;1279;22457;-80
2023/07/09 03:18:26;;;;;;;13.00;11.30;;;;;;;17.08;57.85;100883.35;109028;1275;23608;-81
2023/07/09 03:21:32;;;;;;;14.30;10.10;;;;;;;17.06;58.12;100882.59;108879;1278;22082;-79
2023/07/09 03:24:30;;;;;;;13.60;10.80;;;;;;;17.03;58.38;100887.70;109262;1276;22445;-80
2023/07/09 03:27:15;;;;;;;12.80;11.30;;;;;;;17.08;58.66;100891.46;109772;1261;23589;-80
2023/07/09 03:29:55;;;;;;;21.30;12.60;;;;;;;17.13;58.74;100894.33;109588;1266;21970;-79
2023/07/09 03:32:40;;;;;;;20.70;11.80;;;;;;;17.18;58.78;100899.66;110227;1265;22379;-78
2023/07/09 03:38:29;;;;;;;15.40;11.20;;;;;;;17.20;58.71;100898.34;109452;1265;22202;-80
2023/07/09 03:41:45;;;;;;;;;;;;;;;;;;;;;
2023/07/09 03:44:47;;;;;;;12.70;10.70;;;;;;;17.18;59.02;100883.69;110285;1254;23733;-79
2023/07/09 03:47:31;;;;;;;15.00;10.40;;;;;;;17.26;58.99;100886.20;110269;1265;23690;-80
2023/07/09 03:50:40;;;;;;;13.20;9.10;;;;;;;17.32;59.15;100884.79;110263;1265;21985;-84
2023/07/09 03:53:56;;;;;;;;;;;;;;;;;;;;;
2023/07/09 03:56:49;;;;;;;14.00;11.60;;;;;;;17.52;59.25;100881.20;110341;1262;22129;-80
2023/07/09 03:59:37;;;;;;;9.60;7.60;;;;;;;17.68;59.25;100877.63;110778;1262;21983;-79
2023/07/09 04:02:11;;;;;;;11.20;7.80;;;;;;;17.76;59.05;100882.42;110640;1254;21984;-78
2023/07/09 04:05:08;;;;;;;10.60;8.80;;;;;;;17.87;58.76;100884.95;110967;1255;23333;-81
2023/07/09 04:08:04;;;;;;;8.70;7.70;;;;;;;17.99;58.66;100881.95;110669;1258;21993;-80
2023/07/09 04:11:14;;;;;;;7.40;6.60;;;;;;;18.08;58.40;100880.67;110876;1262;24261;-80
2023/07/09 04:15:05;;;;;;;8.30;6.30;;;;;;;18.18;58.17;100882.02;110462;1262;23686;-81
2023/07/09 04:19:20;;;;;;;10.60;6.40;;;;;;;18.28;57.81;100882.79;110667;1262;22356;-80
2023/07/09 04:22:11;;;;;;;9.30;5.90;;;;;;;18.43;57.53;100884.73;110821;1262;21962;-81
2023/07/09 04:25:25;;;;;;;;;;;;;;;;;;;;;
2023/07/09 04:29:31;;;;;;;;;;;;;;;;;;;;;
2023/07/09 04:32:26;;;;;;;6.80;6.10;;;;;;;18.94;56.30;100893.02;110237;1267;23710;-80
2023/07/09 04:35:20;;;;;;;10.40;6.80;;;;;;;19.11;56.05;100892.61;109928;1267;23696;-80
2023/07/09 04:38:41;;;;;;;10.00;6.50;;;;;;;19.32;55.60;100904.65;110203;1267;23828;-79
2023/07/09 04:41:36;;;;;;;10.30;6.80;;;;;;;19.52;54.96;100905.63;110204;1267;22004;-80
2023/07/09 04:44:50;;;;;;;7.20;5.90;;;;;;;19.66;54.33;100906.65;110647;1261;23644;-79
2023/07/09 04:47:28;;;;;;;7.60;5.90;;;;;;;19.83;54.05;100903.91;110323;1265;23679;-78
2023/07/09 04:50:19;;;;;;;;;;;;;;;;;;;;;
2023/07/09 04:53:03;;;;;;;9.10;5.80;;;;;;;20.26;53.36;100903.07;110414;1265;21962;-79
2023/07/09 04:55:47;;;;;;;7.30;5.70;;;;;;;20.53;52.89;100901.55;109594;1271;23355;-82
2023/07/09 04:58:29;;;;;;;5.80;5.10;;;;;;;20.83;52.44;100904.59;109601;1271;22038;-80
2023/07/09 05:01:20;;;;;;;7.40;5.40;;;;;;;21.13;51.73;100899.42;109407;1274;22753;-84
2023/07/09 05:04:43;;;;;;;7.70;5.50;;;;;;;21.52;51.32;100897.89;109470;1274;22186;-79
2023/07/09 05:08:46;;;;;;;8.90;4.80;;;;;;;22.05;50.02;100895.84;109558;1272;22054;-80
2023/07/09 05:12:24;;;;;;;5.20;4.70;;;;;;;22.53;48.81;100895.85;109775;1270;21977;-78
2023/07/09 05:15:26;;;;;;;;;;;;;;;22.97;48.43;100899.84;110479;1264;21987;-78
2023/07/09 05:18:24;;;;;;;5.70;4.20;;;;;;;23.30;47.23;100906.86;110332;1259;23042;-79
2023/07/09 05:21:04;;;;;;;9.60;5.60;;;;;;;23.58;46.91;100912.05;110600;1263;23589;-78
2023/07/09 05:24:01;;;;;;;8.00;4.90;;;;;;;23.92;46.21;100912.23;110630;1263;22085;-78
2023/07/09 05:27:12;;;;;;;9.60;5.00;;;;;;;24.21;45.27;100912.59;110472;1263;22235;-80
2023/07/09 05:30:47;;;;;;;9.00;5.10;;;;;;;24.51;44.36;100916.06;110769;1263;23040;-82
2023/07/09 05:33:28;;;;;;;5.00;4.00;;;;;;;24.61;43.81;100919.84;110798;1263;21971;-79
2023/07/09 05:36:04;;;;;;;7.90;4.30;;;;;;;24.72;43.83;100920.23;110401;1263;23741;-79
2023/07/09 05:38:55;;;;;;;9.30;4.70;;;;;;;24.99;43.41;100914.11;110709;1259;23795;-84
2023/07/09 05:41:43;;;;;;;11.20;5.50;;;;;;;25.22;42.70;100914.51;110753;1259;21986;-82
2023/07/09 05:45:26;;;;;;;5.40;4.40;;;;;;;25.24;42.26;100914.77;111145;1253;22642;-80
2023/07/09 05:48:39;;;;;;;;;;;;;;;;;;;;;
2023/07/09 05:51:30;;;;;;;9.40;4.60;;;;;;;25.46;41.78;100912.58;110958;1260;21972;-80
2023/07/09 05:54:48;;;;;;;5.90;4.70;;;;;;;25.81;42.36;100909.88;110921;1260;21959;-78
2023/07/09 05:57:48;;;;;;;6.00;4.00;;;;;;;26.26;41.16;100899.61;110722;1260;21964;-80
2023/07/09 06:00:39;;;;;;;14.80;4.50;;;;;;;26.57;40.74;100909.63;110709;1259;21952;-84
2023/07/09 06:03:56;;;;;;;8.30;4.90;;;;;;;26.89;40.08;100907.66;111091;1259;21949;-84
2023/07/09 06:06:51;;;;;;;4.80;3.60;;;;;;;27.21;39.60;100908.22;110556;1266;23711;-84
2023/07/09 06:09:23;;;;;;;5.60;3.60;;;;;;;27.54;39.08;100898.11;110353;1266;21972;-84
2023/07/09 06:12:10;;;;;;;5.90;4.10;;;;;;;27.87;38.32;100899.98;110145;1270;22668;-85
2023/07/09 06:14:52;;;;;;;10.90;3.90;;;;;;;28.16;37.30;100908.63;110095;1270;21999;-86
2023/07/09 06:17:25;;;;;;;6.00;4.00;;;;;;;28.30;36.57;100909.16;109466;1274;23881;-82
2023/07/09 06:20:39;;;;;;;13.80;4.60;;;;;;;28.27;36.18;100912.91;109424;1273;22448;-81
2023/07/09 06:23:24;;;;;;;4.80;3.80;;;;;;;28.46;36.12;100916.16;109685;1270;23033;-80
2023/07/09 06:26:01;;;;;;;5.30;4.00;;;;;;;28.54;35.35;100919.09;109881;1262;21977;-81
2023/07/09 06:28:51;;;;;;;6.70;4.00;;;;;;;28.72;35.47;100912.25;110119;1270;21964;-81
2023/07/09 06:31:37;;;;;;;22.40;20.30;;;;;;;28.98;35.23;100898.45;110100;1267;22293;-85
2023/07/09 06:34:25;;;;;;;12.60;5.30;;;;;;;29.17;34.66;100906.80;110134;1267;21974;-82
2023/07/09 06:37:11;;;;;;;5.40;3.60;;;;;;;29.39;34.75;100910.22;110544;1262;22391;-80
2023/07/09 06:39:45;;;;;;;4.80;3.50;;;;;;;29.61;34.58;100903.82;110609;1261;22256;-81
2023/07/09 06:42:31;;;;;;;5.40;3.80;;;;;;;29.84;34.33;100907.59;110901;1261;21966;-80
2023/07/09 06:45:15;;;;;;;4.30;3.10;;;;;;;30.03;33.36;100914.09;111321;1256;22449;-79
2023/07/09 06:48:00;;;;;;;9.70;4.40;;;;;;;30.16;32.67;100913.92;111394;1254;22085;-79
2023/07/09 06:50:38;;;;;;;9.10;3.70;;;;;;;30.25;32.55;100915.94;111232;1256;21977;-79
2023/07/09 06:53:29;;;;;;;7.90;3.30;;;;;;;30.46;32.70;100922.89;111296;1256;23660;-81
2023/07/09 06:56:00;;;;;;;6.20;3.40;;;;;;;30.75;32.06;100921.22;111415;1256;23599;-79
2023/07/09 06:58:39;;;;;;;4.80;3.60;;;;;;;30.91;31.80;100921.02;111222;1256;23704;-80
2023/07/09 07:01:20;;;;;;;6.80;3.10;;;;;;;31.08;31.52;100915.98;111493;1255;24374;-81
2023/07/09 07:03:57;;;;;;;5.60;3.00;;;;;;;31.22;31.16;100921.72;111336;1256;22335;-83
2023/07/09 07:06:40;;;;;;;7.10;3.30;;;;;;;31.22;30.98;100915.63;111007;1260;22331;-81
2023/07/09 07:09:52;;;;;;;5.80;3.30;;;;;;;31.23;30.61;100923.45;110981;1257;21957;-82
2023/07/09 07:12:58;;;;;;;6.00;2.70;;;;;;;31.13;30.42;100922.23;110843;1260;22401;-81
2023/07/09 07:16:03;;;;;;;4.80;3.00;;;;;;;31.07;30.86;100917.76;111006;1260;22982;-81
2023/07/09 07:19:17;;;;;;;4.30;2.80;;;;;;;31.10;30.58;100929.26;111041;1260;23731;-81
2023/07/09 07:27:47;;;;;;;6.80;3.10;;;;;;;31.11;30.47;100934.76;110454;1265;22359;-84
2023/07/09 07:30:57;;;;;;;7.10;3.10;;;;;;;31.18;30.31;100931.80;109677;1271;21978;-83
2023/07/09 07:34:00;;;;;;;5.90;2.90;;;;;;;31.18;30.16;100929.98;109741;1272;21975;-80
2023/07/09 07:36:57;;;;;;;;;;;;;;;;;;;;;
2023/07/09 07:39:40;;;;;;;6.30;2.80;;;;;;;31.05;29.69;100926.76;109811;1272;21976;-80
2023/07/09 07:42:48;;;;;;;;;;;;;;;31.07;29.64;100932.44;109774;1272;22406;-80
2023/07/09 07:45:26;;;;;;;6.10;2.70;;;;;;;30.99;29.53;100930.40;109655;1272;21978;-80
2023/07/09 07:48:18;;;;;;;8.80;3.10;;;;;;;30.85;29.74;100930.46;110079;1265;22406;-80
2023/07/09 07:51:13;;;;;;;7.60;3.10;;;;;;;30.91;30.32;100932.50;110324;1264;24082;-80
2023/07/09 07:54:12;;;;;;;;;;;;;;;;;;;;;
2023/07/09 07:58:01;;;;;;;7.60;2.60;;;;;;;31.08;29.82;100933.79;109307;1273;23125;-81
2023/07/09 08:00:47;;;;;;;5.80;3.20;;;;;;;31.23;29.50;100931.49;108925;1275;23057;-81
2023/07/09 08:03:45;;;;;;;4.00;2.70;;;;;;;31.35;29.09;100931.41;109373;1272;22005;-81
2023/07/09 08:10:49;;;;;;;4.90;2.80;;;;;;;31.53;28.80;100932.41;108659;1286;22001;-79
2023/07/09 08:13:44;;;;;;;5.30;2.70;;;;;;;31.59;29.16;100932.70;108830;1281;22019;-80
2023/07/09 08:16:30;;;;;;;5.50;3.60;;;;;;;31.71;29.03;100932.59;108692;1284;22175;-80
2023/07/09 08:19:22;;;;;;;5.90;2.80;;;;;;;31.82;28.78;100928.32;108738;1284;22028;-81
2023/07/09 08:22:14;;;;;;;5.30;2.80;;;;;;;31.94;28.40;100930.41;108481;1286;23059;-80
2023/07/09 08:25:05;;;;;;;8.10;2.60;;;;;;;32.04;28.21;100931.05;108698;1282;22399;-81
2023/07/09 08:28:11;;;;;;;4.10;2.20;;;;;;;32.12;28.03;100928.05;108997;1280;22596;-80
2023/07/09 08:31:10;;;;;;;4.40;2.70;;;;;;;32.20;27.71;100923.98;108903;1280;22447;-81
2023/07/09 08:34:14;;;;;;;7.50;5.00;;;;;;;32.24;27.52;100925.39;109278;1270;23726;-79
2023/07/09 08:42:52;;;;;;;7.20;2.60;;;;;;;32.08;27.23;100921.77;108851;1282;21988;-81
2023/07/09 08:46:18;;;;;;;7.80;2.70;;;;;;;32.17;27.09;100918.28;108765;1280;24490;-81
2023/07/09 08:50:15;;;;;;;;;;;;;;;;;;;;;
2023/07/09 08:53:19;;;;;;;3.00;2.60;;;;;;;32.25;26.61;100919.48;109193;1278;22006;-81
2023/07/09 08:56:12;;;;;;;4.20;2.70;;;;;;;32.31;26.57;100914.81;109135;1278;22084;-81
2023/07/09 08:59:11;;;;;;;12.30;3.30;;;;;;;32.21;25.69;100923.16;108762;1282;22008;-81
2023/07/09 09:02:59;;;;;;;;;;;;;;;;;;;;;
2023/07/09 09:06:09;;;;;;;7.20;2.80;;;;;;;32.02;25.83;100925.52;108703;1283;22519;-79
2023/07/09 09:10:08;;;;;;;;;;;;;;;;;;;;;
2023/07/09 09:13:04;;;;;;;5.10;2.90;;;;;;;31.70;25.55;100928.00;108945;1281;22488;-81
2023/07/09 09:16:21;;;;;;;6.40;2.60;;;;;;;31.67;25.60;100929.61;108858;1282;22070;-80
2023/07/09 09:19:42;;;;;;;4.10;2.50;;;;;;;31.64;25.55;100923.43;109716;1271;21990;-83
2023/07/09 09:23:28;;;;;;;3.70;2.80;;;;;;;31.62;26.04;100918.37;109758;1270;21945;-80
2023/07/09 09:27:01;;;;;;;4.10;2.40;;;;;;;31.62;25.71;100923.19;109584;1273;21988;-81
2023/07/09 09:29:57;;;;;;;3.60;2.50;;;;;;;31.64;25.63;100924.30;109545;1273;22007;-83
2023/07/09 09:32:47;;;;;;;5.00;3.40;;;;;;;31.60;25.87;100920.34;109525;1273;21965;-80
2023/07/09 09:35:20;;;;;;;3.80;2.50;;;;;;;31.60;26.02;100927.56;109438;1273;21992;-79
2023/07/09 09:38:09;;;;;;;12.20;2.60;;;;;;;31.58;25.81;100928.83;109830;1270;23175;-81
2023/07/09 09:40:42;;;;;;;8.20;3.20;;;;;;;31.47;25.78;100928.36;109137;1272;21976;-82
2023/07/09 09:43:39;;;;;;;7.10;2.80;;;;;;;31.40;26.01;100935.45;109681;1272;21992;-80
2023/07/09 09:46:31;;;;;;;5.30;2.30;;;;;;;31.40;25.95;100935.62;109840;1272;23628;-79
2023/07/09 09:49:29;;;;;;;7.10;2.30;;;;;;;31.40;26.08;100929.16;109683;1272;22355;-80
2023/07/09 09:52:17;;;;;;;5.80;2.70;;;;;;;31.52;26.05;100938.24;109307;1275;21984;-80
2023/07/09 09:55:36;;;;;;;4.10;2.60;;;;;;;31.52;25.52;100940.00;110020;1266;23714;-81
2023/07/09 09:58:27;;;;;;;4.90;2.60;;;;;;;31.37;25.65;100934.70;109892;1266;22994;-84
2023/07/09 10:01:17;;;;;;;4.10;2.70;;;;;;;31.25;25.80;100931.27;109773;1272;21986;-80
2023/07/09 10:04:05;;;;;;;6.70;2.50;;;;;;;31.19;26.21;100923.41;109129;1275;22007;-79
2023/07/09 10:06:50;;;;;;;3.60;2.30;;;;;;;31.25;26.01;100931.69;109089;1275;22244;-83
2023/07/09 10:09:54;;;;;;;3.90;2.60;;;;;;;31.18;26.07;100929.54;109260;1269;24098;-79
2023/07/09 10:13:14;;;;;;;2.50;2.10;;;;;;;31.44;26.10;100935.92;109667;1267;23221;-81
2023/07/09 10:16:31;;;;;;;6.60;2.80;;;;;;;31.61;25.68;100931.23;109543;1271;22328;-82
2023/07/09 10:19:48;;;;;;;5.50;2.50;;;;;;;31.81;25.44;100929.71;109572;1272;21964;-79
2023/07/09 10:22:55;;;;;;;6.60;2.60;;;;;;;32.00;24.97;100934.34;110095;1266;21968;-80
2023/07/09 10:25:57;;;;;;;9.10;2.80;;;;;;;32.10;24.42;100928.84;110189;1270;22870;-79
2023/07/09 10:29:40;;;;;;;2.70;2.10;;;;;;;32.03;24.33;100933.13;109751;1269;22936;-79
2023/07/09 10:32:51;;;;;;;4.00;2.10;;;;;;;31.88;24.46;100929.42;110147;1265;23039;-80
2023/07/09 10:35:35;;;;;;;;;;;;;;;31.75;24.84;100919.25;109231;1276;23080;-79
2023/07/09 10:38:27;;;;;;;3.30;2.20;;;;;;;31.66;25.16;100918.00;109310;1276;22986;-79
2023/07/09 10:41:03;;;;;;;4.20;2.30;;;;;;;31.69;25.13;100918.40;109280;1275;22005;-80
2023/07/09 10:44:23;;;;;;;3.40;2.50;;;;;;;31.63;25.23;100916.83;109501;1273;22363;-78
2023/07/09 10:47:41;;;;;;;3.00;2.00;;;;;;;31.67;25.54;100910.98;109459;1273;21982;-79
2023/07/09 10:50:41;;;;;;;9.30;2.60;;;;;;;31.77;25.44;100907.27;109720;1267;21798;-78
2023/07/09 10:53:47;;;;;;;5.30;2.80;;;;;;;31.77;25.27;100903.62;110437;1260;22012;-84
2023/07/09 10:56:35;;;;;;;10.10;6.50;;;;;;;31.75;24.97;100904.39;110563;1261;21989;-80
2023/07/09 10:59:37;;;;;;;4.50;2.30;;;;;;;31.75;24.88;100908.95;110877;1261;23693;-78
2023/07/09 11:02:35;;;;;;;3.40;2.30;;;;;;;31.68;24.66;100911.74;110823;1261;22936;-80
2023/07/09 11:05:10;;;;;;;9.70;3.20;;;;;;;31.54;24.55;100909.64;110869;1261;23032;-78
2023/07/09 11:08:21;;;;;;;5.70;2.50;;;;;;;31.41;24.63;100906.08;110473;1261;21939;-78
2023/07/09 11:11:03;;;;;;;6.10;2.20;;;;;;;31.32;24.68;100908.67;110711;1261;21983;-81
2023/07/09 11:13:52;;;;;;;3.80;2.20;;;;;;;31.21;24.78;100898.34;110736;1250;23000;-79
2023/07/09 11:16:50;;;;;;;6.60;2.40;;;;;;;31.13;24.69;100900.73;111222;1255;21957;-78
2023/07/09 11:19:23;;;;;;;8.40;2.30;;;;;;;30.90;24.82;100892.92;110700;1261;23055;-80
2023/07/09 11:22:20;;;;;;;3.80;2.70;;;;;;;30.90;25.04;100901.77;110527;1261;23042;-80
2023/07/09 11:25:12;;;;;;;4.00;2.40;;;;;;;30.82;24.67;100904.98;110164;1267;24559;-78
2023/07/09 11:28:07;;;;;;;6.00;2.60;;;;;;;30.71;24.89;100898.33;109168;1273;22443;-80
2023/07/09 11:31:04;;;;;;;3.00;2.40;;;;;;;30.64;25.05;100895.37;109623;1273;22001;-78
2023/07/09 11:34:32;;;;;;;4.50;2.20;;;;;;;30.66;25.51;100891.42;109333;1273;23621;-79
2023/07/09 11:37:31;;;;;;;9.70;2.90;;;;;;;30.64;25.03;100895.71;109631;1268;22731;-79
2023/07/09 11:40:22;;;;;;;3.00;1.80;;;;;;;30.63;24.95;100893.45;110087;1267;21997;-78
2023/07/09 11:43:00;;;;;;;5.20;2.10;;;;;;;30.66;24.77;100896.65;110453;1261;22001;-80
2023/07/09 11:45:38;;;;;;;2.50;2.00;;;;;;;30.59;24.52;100883.67;110874;1255;21966;-80
2023/07/09 11:48:34;;;;;;;4.80;2.40;;;;;;;30.59;24.29;100882.06;111096;1255;21956;-77
2023/07/09 11:51:26;;;;;;;;;;;;;;;30.55;24.13;100883.30;111075;1256;23570;-78
2023/07/09 11:54:13;;;;;;;11.70;10.80;;;;;;;30.42;24.30;100880.45;111202;1255;22463;-78
2023/07/09 11:57:05;;;;;;;4.90;4.50;;;;;;;30.48;24.34;100880.50;111141;1255;21951;-79
2023/07/09 11:59:43;;;;;;;5.50;3.10;;;;;;;30.60;24.22;100879.30;111175;1256;23645;-80
2023/07/09 12:02:23;;;;;;;3.90;2.40;;;;;;;30.69;23.86;100875.89;111268;1256;21988;-84
2023/07/09 12:05:02;;;;;;;4.00;2.70;;;;;;;30.65;23.80;100872.61;111251;1255;22564;-83
2023/07/09 12:07:44;;;;;;;3.40;1.80;;;;;;;30.68;23.55;100883.60;111139;1255;23700;-78
2023/07/09 12:10:36;;;;;;;6.40;1.90;;;;;;;30.67;23.24;100867.23;110940;1256;21982;-80
2023/07/09 12:13:17;;;;;;;3.80;2.50;;;;;;;30.78;23.01;100863.47;111086;1256;22960;-79
2023/07/09 12:15:52;;;;;;;5.90;2.20;;;;;;;30.90;22.51;100871.96;110523;1257;334787;-79
2023/07/09 12:18:51;;;;;;;;;;;;;;;;;;;;;
2023/07/09 12:21:44;;;;;;;3.60;1.80;;;;;;;30.87;22.33;100860.22;110438;1262;23722;-79
2023/07/09 12:24:51;;;;;;;;;;;;;;;;;;;;;
2023/07/09 12:27:50;;;;;;;2.60;2.30;;;;;;;30.87;22.62;100861.69;110532;1262;21973;-78
2023/07/09 12:30:39;;;;;;;6.30;2.30;;;;;;;30.91;22.73;100861.25;110486;1262;23142;-78
2023/07/09 12:33:54;;;;;;;3.00;2.50;;;;;;;30.90;23.01;100860.38;110618;1256;22005;-79
2023/07/09 12:36:43;;;;;;;4.70;2.20;;;;;;;30.90;23.38;100850.20;111031;1256;21993;-78
2023/07/09 12:39:28;;;;;;;10.50;2.70;;;;;;;30.90;23.43;100849.30;110940;1256;23098;-78
2023/07/09 12:42:47;;;;;;;3.20;2.20;;;;;;;30.90;23.65;100849.16;110908;1256;21956;-79
2023/07/09 12:45:38;;;;;;;11.30;3.40;;;;;;;30.87;23.59;100847.68;111158;1256;23779;-79
2023/07/09 12:48:40;;;;;;;6.30;2.70;;;;;;;30.80;23.79;100843.05;110938;1250;23032;-77
2023/07/09 12:52:19;;;;;;;3.90;2.40;;;;;;;30.77;24.04;100846.67;111000;1244;22008;-78
2023/07/09 12:55:30;;;;;;;5.70;2.30;;;;;;;30.74;23.92;100841.73;111068;1256;23580;-79
2023/07/09 12:58:32;;;;;;;;;;;;;;;;;;;;;
2023/07/09 13:01:44;;;;;;;4.50;2.10;;;;;;;30.59;23.84;100839.40;111017;1256;21959;-78
2023/07/09 13:04:58;;;;;;;6.20;2.50;;;;;;;30.50;24.08;100836.82;110308;1251;23046;-81
2023/07/09 13:07:55;;;;;;;;;;;;;;;;;;;;;
2023/07/09 13:10:53;;;;;;;;;;;;;;;;;;;;;
2023/07/09 13:14:06;;;;;;;2.60;2.10;;;;;;;30.32;24.06;100823.23;110105;1268;21969;-79
2023/07/09 13:17:25;;;;;;;4.10;2.40;;;;;;;30.37;23.97;100830.06;109941;1268;21978;-79
2023/07/09 13:20:56;;;;;;;5.60;1.80;;;;;;;30.32;23.97;100827.01;109788;1268;23075;-80
2023/07/09 13:27:07;;;;;;;;;;;;;;;;;;;;;
2023/07/09 13:30:34;;;;;;;;;;;;;;;;;;;;;
2023/07/09 13:33:34;;;;;;;;;;;;;;;;;;;;;
2023/07/09 13:36:21;;;;;;;4.50;4.10;;;;;;;30.29;23.78;100831.08;109542;1271;21963;-79
2023/07/09 13:39:19;;;;;;;3.90;2.40;;;;;;;30.34;24.01;100824.84;108965;1276;23720;-78
2023/07/09 13:42:18;;;;;;;4.30;2.00;;;;;;;30.39;23.98;100823.53;109511;1269;21978;-79
2023/07/09 13:45:05;;;;;;;3.30;2.40;;;;;;;30.41;23.75;100826.31;109642;1270;23742;-79
2023/07/09 13:47:50;;;;;;;2.80;1.70;;;;;;;30.40;23.64;100822.84;109684;1270;21973;-78
2023/07/09 13:50:55;;;;;;;4.20;1.70;;;;;;;30.35;23.68;100821.17;109815;1269;22527;-77
2023/07/09 13:54:08;;;;;;;3.00;1.90;;;;;;;30.34;23.82;100820.52;108982;1275;22181;-78
2023/07/09 13:57:33;;;;;;;2.20;1.60;;;;;;;30.36;23.68;100821.20;109195;1273;22193;-79
2023/07/09 14:00:44;;;;;;;2.50;1.50;;;;;;;30.34;23.41;100822.60;109310;1271;23042;-80
2023/07/09 14:03:27;;;;;;;3.00;1.50;;;;;;;30.31;23.31;100805.77;109035;1276;22537;-79
2023/07/09 14:06:24;;;;;;;3.30;2.00;;;;;;;30.38;23.23;100807.30;109094;1277;22006;-78
2023/07/09 14:09:46;;;;;;;4.70;1.80;;;;;;;30.40;23.29;100805.67;108929;1272;23611;-80
2023/07/09 14:12:58;;;;;;;2.00;1.70;;;;;;;30.42;23.38;100807.66;109987;1258;22024;-82
2023/07/09 14:16:27;;;;;;;;;;;;;;;;;;;;;
2023/07/09 14:19:56;;;;;;;;;;;;;;;;;;;;;
2023/07/09 14:23:50;;;;;;;;;;;;;;;;;;;;;
2023/07/09 14:27:00;;;;;;;4.90;2.60;;;;;;;30.35;23.31;100809.63;108913;1279;21974;-79
2023/07/09 14:29:54;;;;;;;4.90;2.20;;;;;;;30.29;23.38;100799.40;108961;1279;22008;-77
2023/07/09 14:33:09;;;;;;;3.30;1.50;;;;;;;30.26;23.43;100809.02;108473;1279;23644;-78
2023/07/09 14:40:12;;;;;;;;;;;;;;;;;;;;;
2023/07/09 14:43:09;;;;;;;4.00;2.00;;;;;;;30.11;23.57;100800.27;108738;1277;21980;-80
2023/07/09 14:46:22;;;;;;;3.60;1.60;;;;;;;30.11;23.59;100803.00;108849;1278;22058;-78
2023/07/09 14:49:43;;;;;;;;;;;;;;;;;;;;;
2023/07/09 14:52:23;;;;;;;2.70;1.60;;;;;;;29.98;23.76;100792.26;108930;1278;21988;-78
2023/07/09 14:55:01;;;;;;;4.60;2.30;;;;;;;30.00;23.76;100790.09;108813;1278;22984;-79
2023/07/09 14:57:37;;;;;;;2.90;2.40;;;;;;;30.05;23.75;100787.95;109067;1273;22984;-79
2023/07/09 15:00:32;;;;;;;2.10;1.30;;;;;;;30.03;23.73;100785.77;109390;1269;21933;-78
2023/07/09 15:03:31;;;;;;;3.60;2.30;;;;;;;29.97;23.80;100783.07;110029;1261;22357;-78
2023/07/09 15:06:49;;;;;;;2.70;2.40;;;;;;;29.89;23.71;100773.34;110902;1261;22117;-79